sensor_id;sensor_type;location;lat;lon;timestamp;temperature;humidity
37786;DHT22;23625;48.784;9.336;2022-12-18T00:01:32;-10.20;99.90
37786;DHT22;23625;48.784;9.336;2022-12-18T00:03:59;-10.20;99.90
37786;DHT22;23625;48.784;9.336;2022-12-18T00:06:27;-10.20;99.90
37786;DHT22;23625;48.784;9.336;2022-12-18T00:08:55;-10.30;99.90
37786;DHT22;23625;48.784;9.336;2022-12-18T00:11:22;-10.30;99.90
37786;DHT22;23625;48.784;9.336;2022-12-18T00:13:49;-10.30;99.90
37786;DHT22;23625;48.784;9.336;2022-12-18T00:16:17;-10.30;99.90
37786;DHT22;23625;48.784;9.336;2022-12-18T00:18:45;-10.40;99.90
37786;DHT22;23625;48.784;9.336;2022-12-18T00:21:12;-10.40;99.90
37786;DHT22;23625;48.784;9.336;2022-12-18T00:23:40;-10.40;99.90
37786;DHT22;23625;48.784;9.336;2022-12-18T00:26:09;-10.40;99.90
37786;DHT22;23625;48.784;9.336;2022-12-18T00:28:35;-10.40;99.90
37786;DHT22;23625;48.784;9.336;2022-12-18T00:31:01;-10.40;99.90
37786;DHT22;23625;48.784;9.336;2022-12-18T00:33:28;-10.40;99.90
37786;DHT22;23625;48.784;9.336;2022-12-18T00:35:53;-10.40;99.90
37786;DHT22;23625;48.784;9.336;2022-12-18T00:38:19;-10.30;99.90
37786;DHT22;23625;48.784;9.336;2022-12-18T00:40:44;-10.40;99.90
37786;DHT22;23625;48.784;9.336;2022-12-18T00:43:10;-10.30;99.90
37786;DHT22;23625;48.784;9.336;2022-12-18T00:45:36;-10.40;99.90
37786;DHT22;23625;48.784;9.336;2022-12-18T00:48:01;-10.40;99.90
37786;DHT22;23625;48.784;9.336;2022-12-18T00:50:27;-10.50;99.90
37786;DHT22;23625;48.784;9.336;2022-12-18T00:52:52;-10.50;99.90
37786;DHT22;23625;48.784;9.336;2022-12-18T00:55:18;-10.50;99.90
37786;DHT22;23625;48.784;9.336;2022-12-18T00:57:44;-10.50;99.90
37786;DHT22;23625;48.784;9.336;2022-12-18T01:00:13;-10.50;99.90
37786;DHT22;23625;48.784;9.336;2022-12-18T01:02:39;-10.60;99.90
37786;DHT22;23625;48.784;9.336;2022-12-18T01:05:06;-10.60;99.90
37786;DHT22;23625;48.784;9.336;2022-12-18T01:07:32;-10.60;99.90
37786;DHT22;23625;48.784;9.336;2022-12-18T01:09:57;-10.60;99.90
37786;DHT22;23625;48.784;9.336;2022-12-18T01:12:23;-10.50;99.90
37786;DHT22;23625;48.784;9.336;2022-12-18T01:14:48;-10.60;99.90
37786;DHT22;23625;48.784;9.336;2022-12-18T01:17:14;-10.70;99.90
37786;DHT22;23625;48.784;9.336;2022-12-18T01:19:40;-10.70;99.90
37786;DHT22;23625;48.784;9.336;2022-12-18T01:22:05;-10.60;99.90
37786;DHT22;23625;48.784;9.336;2022-12-18T01:24:31;-10.60;99.90
37786;DHT22;23625;48.784;9.336;2022-12-18T01:26:57;-10.60;99.90
37786;DHT22;23625;48.784;9.336;2022-12-18T01:29:23;-10.60;99.90
37786;DHT22;23625;48.784;9.336;2022-12-18T01:31:49;-10.70;99.90
37786;DHT22;23625;48.784;9.336;2022-12-18T01:34:14;-10.70;99.90
37786;DHT22;23625;48.784;9.336;2022-12-18T01:36:40;-10.70;99.90
37786;DHT22;23625;48.784;9.336;2022-12-18T01:39:10;-10.70;99.90
37786;DHT22;23625;48.784;9.336;2022-12-18T01:41:37;-10.70;99.90
37786;DHT22;23625;48.784;9.336;2022-12-18T01:47:52;-10.70;99.90
37786;DHT22;23625;48.784;9.336;2022-12-18T01:52:50;-10.70;99.90
37786;DHT22;23625;48.784;9.336;2022-12-18T01:55:20;-10.70;99.90
37786;DHT22;23625;48.784;9.336;2022-12-18T01:57:48;-10.70;99.90
37786;DHT22;23625;48.784;9.336;2022-12-18T02:00:18;-10.70;99.90
37786;DHT22;23625;48.784;9.336;2022-12-18T02:02:46;-10.70;99.90
37786;DHT22;23625;48.784;9.336;2022-12-18T02:05:18;-10.70;99.90
37786;DHT22;23625;48.784;9.336;2022-12-18T02:08:51;-10.60;99.90
37786;DHT22;23625;48.784;9.336;2022-12-18T02:10:51;-10.60;99.90
37786;DHT22;23625;48.784;9.336;2022-12-18T02:16:12;-10.60;99.90
37786;DHT22;23625;48.784;9.336;2022-12-18T02:18:46;-10.60;99.90
37786;DHT22;23625;48.784;9.336;2022-12-18T02:21:25;-10.60;99.90
37786;DHT22;23625;48.784;9.336;2022-12-18T02:26:46;-10.60;99.90
37786;DHT22;23625;48.784;9.336;2022-12-18T02:32:02;-10.60;99.90
37786;DHT22;23625;48.784;9.336;2022-12-18T02:34:31;-10.60;99.90
37786;DHT22;23625;48.784;9.336;2022-12-18T02:37:00;-10.60;99.90
37786;DHT22;23625;48.784;9.336;2022-12-18T02:39:29;-10.60;99.90
37786;DHT22;23625;48.784;9.336;2022-12-18T02:41:57;-10.50;99.90
37786;DHT22;23625;48.784;9.336;2022-12-18T02:44:23;-10.50;99.90
37786;DHT22;23625;48.784;9.336;2022-12-18T02:46:51;-10.50;99.90
37786;DHT22;23625;48.784;9.336;2022-12-18T02:54:57;-10.30;99.90
37786;DHT22;23625;48.784;9.336;2022-12-18T03:00:08;-9.40;99.90
37786;DHT22;23625;48.784;9.336;2022-12-18T03:02:40;-10.10;99.90
37786;DHT22;23625;48.784;9.336;2022-12-18T03:05:16;-10.00;99.90
37786;DHT22;23625;48.784;9.336;2022-12-18T03:10:33;-9.70;99.90
37786;DHT22;23625;48.784;9.336;2022-12-18T03:13:06;-9.60;99.90
37786;DHT22;23625;48.784;9.336;2022-12-18T03:15:38;-9.40;99.90
37786;DHT22;23625;48.784;9.336;2022-12-18T03:18:10;-9.40;99.90
37786;DHT22;23625;48.784;9.336;2022-12-18T03:20:39;-9.30;99.90
37786;DHT22;23625;48.784;9.336;2022-12-18T03:23:15;-9.20;99.90
37786;DHT22;23625;48.784;9.336;2022-12-18T03:25:44;-9.10;99.90
37786;DHT22;23625;48.784;9.336;2022-12-18T03:28:17;-9.00;99.90
37786;DHT22;23625;48.784;9.336;2022-12-18T03:30:46;-9.00;99.90
37786;DHT22;23625;48.784;9.336;2022-12-18T03:33:26;-8.90;99.90
37786;DHT22;23625;48.784;9.336;2022-12-18T03:35:53;-8.80;99.90
37786;DHT22;23625;48.784;9.336;2022-12-18T03:38:18;-8.80;99.90
37786;DHT22;23625;48.784;9.336;2022-12-18T03:41:01;-8.80;99.90
37786;DHT22;23625;48.784;9.336;2022-12-18T03:46:06;-8.80;99.90
37786;DHT22;23625;48.784;9.336;2022-12-18T03:48:44;-8.80;99.90
37786;DHT22;23625;48.784;9.336;2022-12-18T03:51:36;-8.80;99.90
37786;DHT22;23625;48.784;9.336;2022-12-18T03:54:04;-8.90;99.90
37786;DHT22;23625;48.784;9.336;2022-12-18T03:56:34;-8.90;99.90
37786;DHT22;23625;48.784;9.336;2022-12-18T03:59:02;-8.90;99.90
37786;DHT22;23625;48.784;9.336;2022-12-18T04:01:40;-8.90;99.90
37786;DHT22;23625;48.784;9.336;2022-12-18T04:04:06;-8.80;99.90
37786;DHT22;23625;48.784;9.336;2022-12-18T04:06:35;-8.80;99.90
37786;DHT22;23625;48.784;9.336;2022-12-18T04:09:03;-8.70;99.90
37786;DHT22;23625;48.784;9.336;2022-12-18T04:11:29;-8.70;99.90
37786;DHT22;23625;48.784;9.336;2022-12-18T04:13:58;-8.70;99.90
37786;DHT22;23625;48.784;9.336;2022-12-18T04:16:27;-8.70;99.90
37786;DHT22;23625;48.784;9.336;2022-12-18T04:18:54;-8.60;99.90
37786;DHT22;23625;48.784;9.336;2022-12-18T04:21:20;-8.60;99.90
37786;DHT22;23625;48.784;9.336;2022-12-18T04:23:45;-8.60;99.90
37786;DHT22;23625;48.784;9.336;2022-12-18T04:26:11;-8.60;99.90
37786;DHT22;23625;48.784;9.336;2022-12-18T04:28:36;-8.60;99.90
37786;DHT22;23625;48.784;9.336;2022-12-18T04:31:02;-8.60;99.90
37786;DHT22;23625;48.784;9.336;2022-12-18T04:33:28;-8.60;99.90
37786;DHT22;23625;48.784;9.336;2022-12-18T04:35:53;-8.50;99.90
37786;DHT22;23625;48.784;9.336;2022-12-18T04:38:19;-8.50;99.90
37786;DHT22;23625;48.784;9.336;2022-12-18T04:40:44;-8.40;99.90
37786;DHT22;23625;48.784;9.336;2022-12-18T04:43:10;-8.40;99.90
37786;DHT22;23625;48.784;9.336;2022-12-18T04:45:36;-8.40;99.90
37786;DHT22;23625;48.784;9.336;2022-12-18T04:48:02;-8.40;99.90
37786;DHT22;23625;48.784;9.336;2022-12-18T04:50:28;-8.50;99.90
37786;DHT22;23625;48.784;9.336;2022-12-18T04:52:54;-8.50;99.90
37786;DHT22;23625;48.784;9.336;2022-12-18T04:55:20;-8.50;99.90
37786;DHT22;23625;48.784;9.336;2022-12-18T04:57:46;-8.50;99.90
37786;DHT22;23625;48.784;9.336;2022-12-18T05:00:12;-8.50;99.90
37786;DHT22;23625;48.784;9.336;2022-12-18T05:02:38;-8.60;99.90
37786;DHT22;23625;48.784;9.336;2022-12-18T05:05:04;-8.60;99.90
37786;DHT22;23625;48.784;9.336;2022-12-18T05:07:30;-8.60;99.90
37786;DHT22;23625;48.784;9.336;2022-12-18T05:09:55;-8.70;99.90
37786;DHT22;23625;48.784;9.336;2022-12-18T05:12:21;-8.70;99.90
37786;DHT22;23625;48.784;9.336;2022-12-18T05:14:47;-8.70;99.90
37786;DHT22;23625;48.784;9.336;2022-12-18T05:17:12;-8.80;99.90
37786;DHT22;23625;48.784;9.336;2022-12-18T05:19:38;-8.90;99.90
37786;DHT22;23625;48.784;9.336;2022-12-18T05:22:03;-9.00;99.90
37786;DHT22;23625;48.784;9.336;2022-12-18T05:24:29;-9.10;99.90
37786;DHT22;23625;48.784;9.336;2022-12-18T05:26:54;-9.00;99.90
37786;DHT22;23625;48.784;9.336;2022-12-18T05:29:20;-9.00;99.90
37786;DHT22;23625;48.784;9.336;2022-12-18T05:31:46;-9.10;99.90
37786;DHT22;23625;48.784;9.336;2022-12-18T05:34:11;-9.20;99.90
37786;DHT22;23625;48.784;9.336;2022-12-18T05:36:37;-9.20;99.90
37786;DHT22;23625;48.784;9.336;2022-12-18T05:39:03;-9.20;99.90
37786;DHT22;23625;48.784;9.336;2022-12-18T05:41:28;-9.20;99.90
37786;DHT22;23625;48.784;9.336;2022-12-18T05:43:54;-9.20;99.90
37786;DHT22;23625;48.784;9.336;2022-12-18T05:46:19;-9.20;99.90
37786;DHT22;23625;48.784;9.336;2022-12-18T05:48:45;-9.20;99.90
37786;DHT22;23625;48.784;9.336;2022-12-18T05:51:16;-9.10;99.90
37786;DHT22;23625;48.784;9.336;2022-12-18T05:53:42;-9.10;99.90
37786;DHT22;23625;48.784;9.336;2022-12-18T05:56:14;-9.20;99.90
37786;DHT22;23625;48.784;9.336;2022-12-18T05:58:40;-9.20;99.90
37786;DHT22;23625;48.784;9.336;2022-12-18T06:01:09;-9.20;99.90
37786;DHT22;23625;48.784;9.336;2022-12-18T06:03:35;-9.30;99.90
37786;DHT22;23625;48.784;9.336;2022-12-18T06:06:01;-9.30;99.90
37786;DHT22;23625;48.784;9.336;2022-12-18T06:08:27;-9.30;99.90
37786;DHT22;23625;48.784;9.336;2022-12-18T06:10:53;-9.40;99.90
37786;DHT22;23625;48.784;9.336;2022-12-18T06:13:19;-9.40;99.90
37786;DHT22;23625;48.784;9.336;2022-12-18T06:15:45;-9.40;99.90
37786;DHT22;23625;48.784;9.336;2022-12-18T06:18:11;-9.30;99.90
37786;DHT22;23625;48.784;9.336;2022-12-18T06:20:36;-9.30;99.90
37786;DHT22;23625;48.784;9.336;2022-12-18T06:23:05;-9.30;99.90
37786;DHT22;23625;48.784;9.336;2022-12-18T06:25:31;-9.30;99.90
37786;DHT22;23625;48.784;9.336;2022-12-18T06:27:56;-9.20;99.90
37786;DHT22;23625;48.784;9.336;2022-12-18T06:30:22;-9.30;99.90
37786;DHT22;23625;48.784;9.336;2022-12-18T06:32:48;-9.30;99.90
37786;DHT22;23625;48.784;9.336;2022-12-18T06:35:14;-9.40;99.90
37786;DHT22;23625;48.784;9.336;2022-12-18T06:37:40;-9.40;99.90
37786;DHT22;23625;48.784;9.336;2022-12-18T06:40:08;-9.40;99.90
37786;DHT22;23625;48.784;9.336;2022-12-18T06:42:34;-9.40;99.90
37786;DHT22;23625;48.784;9.336;2022-12-18T06:45:00;-9.40;99.90
37786;DHT22;23625;48.784;9.336;2022-12-18T06:47:25;-9.40;99.90
37786;DHT22;23625;48.784;9.336;2022-12-18T06:49:51;-9.40;99.90
37786;DHT22;23625;48.784;9.336;2022-12-18T06:52:16;-9.40;99.90
37786;DHT22;23625;48.784;9.336;2022-12-18T06:54:42;-9.50;99.90
37786;DHT22;23625;48.784;9.336;2022-12-18T06:57:07;-9.50;99.90
37786;DHT22;23625;48.784;9.336;2022-12-18T06:59:33;-9.50;99.90
37786;DHT22;23625;48.784;9.336;2022-12-18T07:01:59;-9.60;99.90
37786;DHT22;23625;48.784;9.336;2022-12-18T07:04:29;-9.70;99.90
37786;DHT22;23625;48.784;9.336;2022-12-18T07:06:55;-9.80;99.90
37786;DHT22;23625;48.784;9.336;2022-12-18T07:09:20;-9.80;99.90
37786;DHT22;23625;48.784;9.336;2022-12-18T07:11:46;-9.80;99.90
37786;DHT22;23625;48.784;9.336;2022-12-18T07:14:11;-9.80;99.90
37786;DHT22;23625;48.784;9.336;2022-12-18T07:16:37;-9.80;99.90
37786;DHT22;23625;48.784;9.336;2022-12-18T07:19:02;-9.80;99.90
37786;DHT22;23625;48.784;9.336;2022-12-18T07:21:28;-9.80;99.90
37786;DHT22;23625;48.784;9.336;2022-12-18T07:23:54;-9.90;99.90
37786;DHT22;23625;48.784;9.336;2022-12-18T07:26:20;-11.20;99.90
37786;DHT22;23625;48.784;9.336;2022-12-18T07:28:47;-10.00;99.90
37786;DHT22;23625;48.784;9.336;2022-12-18T07:31:15;-10.00;99.90
37786;DHT22;23625;48.784;9.336;2022-12-18T07:33:41;-10.10;99.90
37786;DHT22;23625;48.784;9.336;2022-12-18T07:36:08;-10.20;99.90
37786;DHT22;23625;48.784;9.336;2022-12-18T07:38:35;-10.20;99.90
37786;DHT22;23625;48.784;9.336;2022-12-18T07:41:02;-10.20;99.90
37786;DHT22;23625;48.784;9.336;2022-12-18T07:43:28;-10.20;99.90
37786;DHT22;23625;48.784;9.336;2022-12-18T07:45:54;-10.20;99.90
37786;DHT22;23625;48.784;9.336;2022-12-18T07:48:19;-10.20;99.90
37786;DHT22;23625;48.784;9.336;2022-12-18T07:50:45;-10.20;99.90
37786;DHT22;23625;48.784;9.336;2022-12-18T07:53:10;-10.10;99.90
37786;DHT22;23625;48.784;9.336;2022-12-18T07:55:36;-10.10;99.90
37786;DHT22;23625;48.784;9.336;2022-12-18T07:58:03;-10.10;99.90
37786;DHT22;23625;48.784;9.336;2022-12-18T08:00:29;-10.00;99.90
37786;DHT22;23625;48.784;9.336;2022-12-18T08:02:54;-10.00;99.90
37786;DHT22;23625;48.784;9.336;2022-12-18T08:05:20;-10.00;99.90
37786;DHT22;23625;48.784;9.336;2022-12-18T08:07:46;-9.90;99.90
37786;DHT22;23625;48.784;9.336;2022-12-18T08:10:12;-9.90;99.90
37786;DHT22;23625;48.784;9.336;2022-12-18T08:12:38;-9.80;99.90
37786;DHT22;23625;48.784;9.336;2022-12-18T08:15:03;-9.80;99.90
37786;DHT22;23625;48.784;9.336;2022-12-18T08:17:29;-9.80;99.90
37786;DHT22;23625;48.784;9.336;2022-12-18T08:19:55;-9.80;99.90
37786;DHT22;23625;48.784;9.336;2022-12-18T08:22:20;-9.80;99.90
37786;DHT22;23625;48.784;9.336;2022-12-18T08:24:46;-9.70;99.90
37786;DHT22;23625;48.784;9.336;2022-12-18T08:27:12;-9.60;99.90
37786;DHT22;23625;48.784;9.336;2022-12-18T08:29:37;-9.60;99.90
37786;DHT22;23625;48.784;9.336;2022-12-18T08:32:03;-9.60;99.90
37786;DHT22;23625;48.784;9.336;2022-12-18T08:34:29;-9.50;99.90
37786;DHT22;23625;48.784;9.336;2022-12-18T08:36:55;-9.50;99.90
37786;DHT22;23625;48.784;9.336;2022-12-18T08:39:20;-9.40;99.90
37786;DHT22;23625;48.784;9.336;2022-12-18T08:41:46;-9.30;99.90
37786;DHT22;23625;48.784;9.336;2022-12-18T08:44:31;-9.20;99.90
37786;DHT22;23625;48.784;9.336;2022-12-18T08:47:03;-8.90;99.90
37786;DHT22;23625;48.784;9.336;2022-12-18T08:49:29;-8.70;99.90
37786;DHT22;23625;48.784;9.336;2022-12-18T08:51:55;-8.50;99.90
37786;DHT22;23625;48.784;9.336;2022-12-18T08:54:22;-8.20;99.90
37786;DHT22;23625;48.784;9.336;2022-12-18T08:56:48;-7.90;99.90
37786;DHT22;23625;48.784;9.336;2022-12-18T08:59:15;-7.80;99.90
37786;DHT22;23625;48.784;9.336;2022-12-18T09:01:41;-7.60;99.90
37786;DHT22;23625;48.784;9.336;2022-12-18T09:04:08;-7.40;99.90
37786;DHT22;23625;48.784;9.336;2022-12-18T09:06:34;-7.20;99.90
37786;DHT22;23625;48.784;9.336;2022-12-18T09:09:00;-7.10;99.90
37786;DHT22;23625;48.784;9.336;2022-12-18T09:11:27;-6.90;99.90
37786;DHT22;23625;48.784;9.336;2022-12-18T09:13:54;-6.70;99.90
37786;DHT22;23625;48.784;9.336;2022-12-18T09:16:21;-6.50;99.90
37786;DHT22;23625;48.784;9.336;2022-12-18T09:18:47;-6.30;99.90
37786;DHT22;23625;48.784;9.336;2022-12-18T09:21:18;-6.10;99.90
37786;DHT22;23625;48.784;9.336;2022-12-18T09:23:52;-5.90;99.90
37786;DHT22;23625;48.784;9.336;2022-12-18T09:26:18;-5.90;99.90
37786;DHT22;23625;48.784;9.336;2022-12-18T09:28:44;-5.70;99.90
37786;DHT22;23625;48.784;9.336;2022-12-18T09:31:14;-5.70;99.90
37786;DHT22;23625;48.784;9.336;2022-12-18T09:33:40;-5.50;99.90
37786;DHT22;23625;48.784;9.336;2022-12-18T09:36:08;-5.40;99.90
37786;DHT22;23625;48.784;9.336;2022-12-18T09:38:35;-5.30;99.90
37786;DHT22;23625;48.784;9.336;2022-12-18T09:43:51;-4.90;99.90
37786;DHT22;23625;48.784;9.336;2022-12-18T09:46:30;-4.70;99.90
37786;DHT22;23625;48.784;9.336;2022-12-18T09:49:00;-4.50;99.90
37786;DHT22;23625;48.784;9.336;2022-12-18T09:51:36;-4.20;99.90
37786;DHT22;23625;48.784;9.336;2022-12-18T09:54:11;-3.90;99.90
37786;DHT22;23625;48.784;9.336;2022-12-18T09:56:41;-3.70;99.90
37786;DHT22;23625;48.784;9.336;2022-12-18T10:02:21;-3.30;99.90
37786;DHT22;23625;48.784;9.336;2022-12-18T10:05:02;-2.90;99.90
37786;DHT22;23625;48.784;9.336;2022-12-18T10:10:46;-2.40;99.90
37786;DHT22;23625;48.784;9.336;2022-12-18T10:21:36;-1.50;99.90
37786;DHT22;23625;48.784;9.336;2022-12-18T10:26:41;-1.30;99.90
37786;DHT22;23625;48.784;9.336;2022-12-18T10:29:15;-1.10;99.90
37786;DHT22;23625;48.784;9.336;2022-12-18T10:31:41;-1.00;99.90
37786;DHT22;23625;48.784;9.336;2022-12-18T10:34:13;-0.70;99.90
37786;DHT22;23625;48.784;9.336;2022-12-18T10:36:41;-0.50;99.90
37786;DHT22;23625;48.784;9.336;2022-12-18T10:39:24;-0.30;99.90
37786;DHT22;23625;48.784;9.336;2022-12-18T10:41:51;0.00;99.90
37786;DHT22;23625;48.784;9.336;2022-12-18T10:44:21;0.20;99.20
37786;DHT22;23625;48.784;9.336;2022-12-18T10:46:54;0.30;97.60
37786;DHT22;23625;48.784;9.336;2022-12-18T10:49:22;0.40;96.10
37786;DHT22;23625;48.784;9.336;2022-12-18T10:51:49;0.50;95.90
37786;DHT22;23625;48.784;9.336;2022-12-18T10:54:18;0.50;96.10
37786;DHT22;23625;48.784;9.336;2022-12-18T10:56:45;0.60;92.10
37786;DHT22;23625;48.784;9.336;2022-12-18T10:59:12;0.60;95.00
37786;DHT22;23625;48.784;9.336;2022-12-18T11:01:57;0.60;94.90
37786;DHT22;23625;48.784;9.336;2022-12-18T11:04:28;0.40;95.10
37786;DHT22;23625;48.784;9.336;2022-12-18T11:07:01;0.40;96.70
37786;DHT22;23625;48.784;9.336;2022-12-18T11:09:32;0.60;95.70
37786;DHT22;23625;48.784;9.336;2022-12-18T11:12:00;0.80;94.40
37786;DHT22;23625;48.784;9.336;2022-12-18T11:14:41;0.90;93.10
37786;DHT22;23625;48.784;9.336;2022-12-18T11:19:55;0.90;90.40
37786;DHT22;23625;48.784;9.336;2022-12-18T11:22:29;1.00;90.10
37786;DHT22;23625;48.784;9.336;2022-12-18T11:25:16;1.10;90.20
37786;DHT22;23625;48.784;9.336;2022-12-18T11:27:48;1.10;88.50
37786;DHT22;23625;48.784;9.336;2022-12-18T11:30:25;1.20;87.60
37786;DHT22;23625;48.784;9.336;2022-12-18T11:33:20;1.20;89.70
37786;DHT22;23625;48.784;9.336;2022-12-18T11:35:53;1.20;86.50
37786;DHT22;23625;48.784;9.336;2022-12-18T11:38:24;1.20;88.70
37786;DHT22;23625;48.784;9.336;2022-12-18T11:44:06;1.30;89.90
37786;DHT22;23625;48.784;9.336;2022-12-18T11:46:47;1.50;85.00
37786;DHT22;23625;48.784;9.336;2022-12-18T11:49:20;1.50;84.70
37786;DHT22;23625;48.784;9.336;2022-12-18T11:51:54;1.40;85.90
37786;DHT22;23625;48.784;9.336;2022-12-18T11:54:21;1.40;87.80
37786;DHT22;23625;48.784;9.336;2022-12-18T12:05:25;1.50;87.40
37786;DHT22;23625;48.784;9.336;2022-12-18T12:29:29;1.00;93.30
37786;DHT22;23625;48.784;9.336;2022-12-18T12:39:47;0.90;95.10
37786;DHT22;23625;48.784;9.336;2022-12-18T12:42:26;0.90;96.30
37786;DHT22;23625;48.784;9.336;2022-12-18T12:46:02;0.90;94.50
37786;DHT22;23625;48.784;9.336;2022-12-18T12:48:24;0.90;94.00
37786;DHT22;23625;48.784;9.336;2022-12-18T12:50:52;1.00;94.10
37786;DHT22;23625;48.784;9.336;2022-12-18T12:53:27;1.00;95.10
37786;DHT22;23625;48.784;9.336;2022-12-18T12:55:55;1.00;94.00
37786;DHT22;23625;48.784;9.336;2022-12-18T12:58:46;1.00;93.70
37786;DHT22;23625;48.784;9.336;2022-12-18T13:01:35;1.00;95.10
37786;DHT22;23625;48.784;9.336;2022-12-18T13:04:38;1.00;95.20
37786;DHT22;23625;48.784;9.336;2022-12-18T13:07:15;1.00;94.50
37786;DHT22;23625;48.784;9.336;2022-12-18T13:13:09;1.10;93.40
37786;DHT22;23625;48.784;9.336;2022-12-18T13:23:33;1.00;98.80
37786;DHT22;23625;48.784;9.336;2022-12-18T13:26:27;0.90;99.00
37786;DHT22;23625;48.784;9.336;2022-12-18T13:36:46;0.90;99.50
37786;DHT22;23625;48.784;9.336;2022-12-18T13:41:51;0.80;99.90
37786;DHT22;23625;48.784;9.336;2022-12-18T13:44:36;0.80;99.90
37786;DHT22;23625;48.784;9.336;2022-12-18T13:47:04;0.80;99.90
37786;DHT22;23625;48.784;9.336;2022-12-18T13:49:38;0.80;99.90
37786;DHT22;23625;48.784;9.336;2022-12-18T13:52:43;0.80;99.90
37786;DHT22;23625;48.784;9.336;2022-12-18T13:55:19;0.70;99.90
37786;DHT22;23625;48.784;9.336;2022-12-18T13:57:45;0.70;99.90
37786;DHT22;23625;48.784;9.336;2022-12-18T14:02:45;0.70;99.90
37786;DHT22;23625;48.784;9.336;2022-12-18T14:05:24;0.60;99.90
37786;DHT22;23625;48.784;9.336;2022-12-18T14:07:50;0.50;99.90
37786;DHT22;23625;48.784;9.336;2022-12-18T14:10:16;0.40;99.90
37786;DHT22;23625;48.784;9.336;2022-12-18T14:12:46;0.60;98.30
37786;DHT22;23625;48.784;9.336;2022-12-18T14:17:57;0.20;99.90
37786;DHT22;23625;48.784;9.336;2022-12-18T14:20:25;0.10;99.90
37786;DHT22;23625;48.784;9.336;2022-12-18T14:22:51;0.10;99.90
37786;DHT22;23625;48.784;9.336;2022-12-18T14:25:21;0.00;99.90
37786;DHT22;23625;48.784;9.336;2022-12-18T14:27:52;-0.10;99.90
37786;DHT22;23625;48.784;9.336;2022-12-18T14:30:33;-0.10;99.90
37786;DHT22;23625;48.784;9.336;2022-12-18T14:33:14;-0.20;99.90
37786;DHT22;23625;48.784;9.336;2022-12-18T14:36:00;-0.20;99.90
37786;DHT22;23625;48.784;9.336;2022-12-18T14:38:35;-0.30;99.90
37786;DHT22;23625;48.784;9.336;2022-12-18T14:41:14;-0.40;99.90
37786;DHT22;23625;48.784;9.336;2022-12-18T14:43:43;-0.40;99.90
37786;DHT22;23625;48.784;9.336;2022-12-18T14:46:49;-0.50;99.90
37786;DHT22;23625;48.784;9.336;2022-12-18T14:49:32;-0.60;99.90
37786;DHT22;23625;48.784;9.336;2022-12-18T14:52:03;-0.70;99.90
37786;DHT22;23625;48.784;9.336;2022-12-18T14:54:30;-0.80;99.90
37786;DHT22;23625;48.784;9.336;2022-12-18T14:57:02;-0.80;99.90
37786;DHT22;23625;48.784;9.336;2022-12-18T14:59:29;-1.00;99.90
37786;DHT22;23625;48.784;9.336;2022-12-18T15:02:09;-1.10;99.90
37786;DHT22;23625;48.784;9.336;2022-12-18T15:04:38;-1.10;99.90
37786;DHT22;23625;48.784;9.336;2022-12-18T15:12:34;-1.40;99.90
37786;DHT22;23625;48.784;9.336;2022-12-18T15:15:00;-1.50;99.90
37786;DHT22;23625;48.784;9.336;2022-12-18T15:17:26;-1.60;99.90
37786;DHT22;23625;48.784;9.336;2022-12-18T15:19:58;-1.70;99.90
37786;DHT22;23625;48.784;9.336;2022-12-18T15:22:34;-1.80;99.90
37786;DHT22;23625;48.784;9.336;2022-12-18T15:25:01;-1.90;99.90
37786;DHT22;23625;48.784;9.336;2022-12-18T15:32:37;-2.10;99.90
37786;DHT22;23625;48.784;9.336;2022-12-18T15:37:34;-2.20;99.90
37786;DHT22;23625;48.784;9.336;2022-12-18T15:40:00;-2.30;99.90
37786;DHT22;23625;48.784;9.336;2022-12-18T15:42:25;-2.40;99.90
37786;DHT22;23625;48.784;9.336;2022-12-18T15:45:13;-2.50;99.90
37786;DHT22;23625;48.784;9.336;2022-12-18T15:47:39;-2.60;99.90
37786;DHT22;23625;48.784;9.336;2022-12-18T15:50:05;-2.70;99.90
37786;DHT22;23625;48.784;9.336;2022-12-18T15:52:40;-2.80;99.90
37786;DHT22;23625;48.784;9.336;2022-12-18T15:55:12;-2.90;99.90
37786;DHT22;23625;48.784;9.336;2022-12-18T15:57:56;-1.80;99.90
37786;DHT22;23625;48.784;9.336;2022-12-18T16:00:22;-3.10;99.90
37786;DHT22;23625;48.784;9.336;2022-12-18T16:02:48;-3.10;99.90
37786;DHT22;23625;48.784;9.336;2022-12-18T16:05:15;-3.20;99.90
37786;DHT22;23625;48.784;9.336;2022-12-18T16:07:42;-3.20;99.90
37786;DHT22;23625;48.784;9.336;2022-12-18T16:10:08;-3.30;99.90
37786;DHT22;23625;48.784;9.336;2022-12-18T16:12:34;-3.30;99.90
37786;DHT22;23625;48.784;9.336;2022-12-18T16:15:00;-3.40;99.90
37786;DHT22;23625;48.784;9.336;2022-12-18T16:17:26;-3.40;99.90
37786;DHT22;23625;48.784;9.336;2022-12-18T16:19:51;-3.50;99.90
37786;DHT22;23625;48.784;9.336;2022-12-18T16:22:28;-3.60;99.90
37786;DHT22;23625;48.784;9.336;2022-12-18T16:24:56;-3.70;99.90
37786;DHT22;23625;48.784;9.336;2022-12-18T16:27:22;-3.70;99.90
37786;DHT22;23625;48.784;9.336;2022-12-18T16:29:48;-3.70;99.90
37786;DHT22;23625;48.784;9.336;2022-12-18T16:32:17;-3.80;99.90
37786;DHT22;23625;48.784;9.336;2022-12-18T16:34:43;-3.90;99.90
37786;DHT22;23625;48.784;9.336;2022-12-18T16:37:11;-3.80;99.90
37786;DHT22;23625;48.784;9.336;2022-12-18T16:39:38;-3.90;99.90
37786;DHT22;23625;48.784;9.336;2022-12-18T16:42:15;-3.90;99.90
37786;DHT22;23625;48.784;9.336;2022-12-18T16:44:45;-3.90;99.90
37786;DHT22;23625;48.784;9.336;2022-12-18T16:47:11;-3.90;99.90
37786;DHT22;23625;48.784;9.336;2022-12-18T16:49:37;-4.00;99.90
37786;DHT22;23625;48.784;9.336;2022-12-18T16:52:03;-4.00;99.90
37786;DHT22;23625;48.784;9.336;2022-12-18T16:54:29;-4.00;99.90
37786;DHT22;23625;48.784;9.336;2022-12-18T16:56:55;-4.10;99.90
37786;DHT22;23625;48.784;9.336;2022-12-18T16:59:21;-4.10;99.90
37786;DHT22;23625;48.784;9.336;2022-12-18T17:01:47;-4.10;99.90
37786;DHT22;23625;48.784;9.336;2022-12-18T17:04:13;-4.10;99.90
37786;DHT22;23625;48.784;9.336;2022-12-18T17:06:41;-4.10;99.90
37786;DHT22;23625;48.784;9.336;2022-12-18T17:09:10;-4.10;99.90
37786;DHT22;23625;48.784;9.336;2022-12-18T17:11:36;-4.10;99.90
37786;DHT22;23625;48.784;9.336;2022-12-18T17:14:15;-4.30;99.90
37786;DHT22;23625;48.784;9.336;2022-12-18T17:16:41;-4.30;99.90
37786;DHT22;23625;48.784;9.336;2022-12-18T17:19:07;-4.30;99.90
37786;DHT22;23625;48.784;9.336;2022-12-18T17:21:33;-4.30;99.90
37786;DHT22;23625;48.784;9.336;2022-12-18T17:23:59;-4.40;99.90
37786;DHT22;23625;48.784;9.336;2022-12-18T17:26:25;-4.30;99.90
37786;DHT22;23625;48.784;9.336;2022-12-18T17:28:51;-4.30;99.90
37786;DHT22;23625;48.784;9.336;2022-12-18T17:31:19;-4.30;99.90
37786;DHT22;23625;48.784;9.336;2022-12-18T17:33:45;-4.30;99.90
37786;DHT22;23625;48.784;9.336;2022-12-18T17:36:11;-4.30;99.90
37786;DHT22;23625;48.784;9.336;2022-12-18T17:38:37;-4.30;99.90
37786;DHT22;23625;48.784;9.336;2022-12-18T17:41:05;-4.30;99.90
37786;DHT22;23625;48.784;9.336;2022-12-18T17:43:31;-4.30;99.90
37786;DHT22;23625;48.784;9.336;2022-12-18T17:46:03;-4.30;99.90
37786;DHT22;23625;48.784;9.336;2022-12-18T17:48:30;-4.30;99.90
37786;DHT22;23625;48.784;9.336;2022-12-18T17:51:01;-4.30;99.90
37786;DHT22;23625;48.784;9.336;2022-12-18T17:53:27;-4.20;99.90
37786;DHT22;23625;48.784;9.336;2022-12-18T17:55:54;-4.20;99.90